Time;durP1;ratioP1;P1;durP2;ratioP2;P2;SDS_P1;SDS_P2;PMS_P1;PMS_P2;Temp;Humidity;BMP_temperature;BMP_pressure;BME280_temperature;BME280_humidity;BME280_pressure;Samples;Min_cycle;Max_cycle;Signal;HPM_P1;HPM_P2
2023/12/15 00:02:20;;;;;;;3.75;2.10;;;;;;;3.34;93.15;94751.94;4976374;28;20039;-83
2023/12/15 00:04:46;;;;;;;3.05;2.08;;;;;;;4.66;93.38;94985.59;4958718;28;20045;-83
2023/12/15 00:07:11;;;;;;;6.50;1.55;;;;;;;3.68;93.74;94823.50;4959388;28;20055;-83
2023/12/15 00:09:37;;;;;;;3.58;1.58;;;;;;;5.34;93.69;95060.66;4959471;28;20039;-82
2023/12/15 00:12:03;;;;;;;1.17;1.05;;;;;;;5.02;94.10;95012.38;4959288;28;20039;-84
2023/12/15 00:14:28;;;;;;;3.15;1.10;;;;;;;4.20;93.77;94878.31;4959749;28;20051;-83
2023/12/15 00:16:54;;;;;;;2.78;1.17;;;;;;;5.54;93.51;95061.97;4960490;28;20050;-84
2023/12/15 00:19:19;;;;;;;4.00;1.02;;;;;;;5.02;92.45;95004.50;4980830;28;20027;-85
2023/12/15 00:21:44;;;;;;;1.15;0.82;;;;;;;5.40;92.54;95072.03;4982159;28;20130;-84
2023/12/15 00:24:10;;;;;;;4.32;1.08;;;;;;;3.56;92.60;94778.22;4980678;28;20109;-84
2023/12/15 00:26:36;;;;;;;1.63;1.25;;;;;;;4.85;93.18;94961.69;4959455;28;20038;-83
2023/12/15 00:29:04;;;;;;;1.65;1.00;;;;;;;4.97;93.18;94993.91;4959584;28;20054;-83
2023/12/15 00:31:30;;;;;;;2.70;1.73;;;;;;;5.61;92.90;95083.63;4959940;28;20117;-84
2023/12/15 00:33:56;;;;;;;5.97;3.08;;;;;;;5.36;92.61;95049.88;4976437;28;20461;-83
2023/12/15 00:36:21;;;;;;;5.97;3.40;;;;;;;5.63;92.24;95087.59;4975347;28;20110;-83
2023/12/15 00:38:47;;;;;;;6.80;4.97;;;;;;;4.91;91.19;94974.66;4976266;28;20133;-83
2023/12/15 00:41:12;;;;;;;4.60;3.70;;;;;;;4.74;91.72;94952.06;4975166;28;20023;-82
2023/12/15 00:43:38;;;;;;;6.55;5.20;;;;;;;5.26;92.60;95039.25;4975346;28;20050;-83
2023/12/15 00:46:04;;;;;;;6.90;4.97;;;;;;;4.95;92.79;95015.19;4957232;28;20035;-82
2023/12/15 00:48:29;;;;;;;11.20;6.03;;;;;;;4.97;93.42;95030.69;4957504;28;20126;-82
2023/12/15 00:50:55;;;;;;;4.75;3.28;;;;;;;4.72;93.17;94980.44;4958042;28;20092;-83
2023/12/15 00:53:20;;;;;;;2.35;1.73;;;;;;;4.53;93.02;94982.50;4956982;28;20587;-82
2023/12/15 00:55:46;;;;;;;5.65;1.80;;;;;;;5.44;94.15;95117.84;4956596;28;20092;-82
2023/12/15 00:58:13;;;;;;;2.42;1.60;;;;;;;4.34;94.25;94937.34;4990574;28;20038;-83
2023/12/15 01:00:39;;;;;;;2.83;1.90;;;;;;;5.55;94.39;95116.16;4957539;28;20034;-84
2023/12/15 01:03:05;;;;;;;1.83;1.30;;;;;;;5.15;94.05;95054.09;4987454;28;20301;-83
2023/12/15 01:05:31;;;;;;;3.70;2.65;;;;;;;3.64;94.12;94839.97;4972605;28;20031;-84
2023/12/15 01:07:56;;;;;;;3.15;2.25;;;;;;;3.82;93.95;94882.47;4998172;28;20092;-83
2023/12/15 01:10:22;;;;;;;3.00;2.17;;;;;;;5.51;94.17;95126.34;4959137;28;20130;-83
2023/12/15 01:12:48;;;;;;;2.92;2.15;;;;;;;5.48;95.02;95118.97;4965265;28;20082;-82
2023/12/15 01:15:13;;;;;;;7.93;2.35;;;;;;;5.14;94.80;95052.50;4974691;28;20054;-85
2023/12/15 01:17:39;;;;;;;2.58;1.83;;;;;;;5.44;94.28;95091.53;4976541;28;20110;-85
2023/12/15 01:20:05;;;;;;;2.13;1.63;;;;;;;3.31;93.48;94776.00;4973871;28;20480;-83
2023/12/15 01:22:31;;;;;;;2.20;1.65;;;;;;;5.04;94.66;95041.81;4976781;28;20035;-83
2023/12/15 01:24:56;;;;;;;2.55;1.75;;;;;;;3.15;94.69;94747.94;4979388;28;20100;-84
2023/12/15 01:27:22;;;;;;;2.63;1.23;;;;;;;5.32;94.66;95114.53;4996566;28;20076;-82
2023/12/15 01:29:47;;;;;;;1.48;1.13;;;;;;;5.16;94.90;95084.59;5060164;28;20039;-83
2023/12/15 01:32:13;;;;;;;1.58;1.13;;;;;;;5.38;94.68;95118.81;4976049;28;20139;-83
2023/12/15 01:34:38;;;;;;;1.95;1.40;;;;;;;5.12;95.37;95069.53;4976431;28;20397;-84
2023/12/15 01:37:04;;;;;;;2.60;1.08;;;;;;;4.30;94.84;94957.22;4975754;28;20039;-82
2023/12/15 01:39:29;;;;;;;1.85;1.10;;;;;;;5.02;94.54;95068.38;4981195;28;20072;-82
2023/12/15 01:41:55;;;;;;;2.88;1.10;;;;;;;4.87;95.20;95070.00;4977917;28;20049;-83
2023/12/15 01:44:20;;;;;;;2.15;1.30;;;;;;;4.19;95.41;94953.66;4991104;28;20031;-82
2023/12/15 01:46:46;;;;;;;1.48;1.10;;;;;;;5.02;95.54;95081.53;4979339;28;20042;-83
2023/12/15 01:49:11;;;;;;;1.50;1.20;;;;;;;4.58;95.46;95027.22;4995075;28;20081;-82
2023/12/15 01:51:38;;;;;;;1.80;1.30;;;;;;;4.78;94.70;95050.41;4979711;28;20031;-82
2023/12/15 01:54:03;;;;;;;3.03;1.50;;;;;;;5.50;95.59;95147.63;4976590;28;20035;-83
2023/12/15 01:56:29;;;;;;;2.80;1.50;;;;;;;5.03;95.48;95093.59;4990906;28;20102;-84
2023/12/15 01:58:54;;;;;;;1.77;1.23;;;;;;;4.80;95.56;95059.66;4976419;28;20049;-82
2023/12/15 02:01:20;;;;;;;3.95;1.70;;;;;;;4.68;95.63;95040.53;4974871;28;20166;-82
2023/12/15 02:03:45;;;;;;;2.55;1.63;;;;;;;4.69;95.63;95046.56;4976628;28;20035;-82
2023/12/15 02:06:11;;;;;;;3.90;2.15;;;;;;;5.30;97.02;95135.81;4974574;28;20084;-82
2023/12/15 02:08:36;;;;;;;2.50;1.70;;;;;;;4.13;97.18;94967.72;4976577;28;20038;-82
2023/12/15 02:11:02;;;;;;;2.38;1.50;;;;;;;3.51;96.33;94871.75;4975911;28;20027;-83
2023/12/15 02:13:28;;;;;;;3.55;1.55;;;;;;;4.89;96.32;95083.66;4990171;28;20509;-82
2023/12/15 02:15:54;;;;;;;1.67;1.25;;;;;;;5.10;96.21;95092.66;4974190;28;20035;-84
2023/12/15 02:18:19;;;;;;;3.88;1.63;;;;;;;4.48;95.85;94996.38;4974593;28;20141;-82
2023/12/15 02:20:45;;;;;;;2.50;1.50;;;;;;;4.93;95.41;95077.69;4974654;28;20487;-83
2023/12/15 02:23:10;;;;;;;3.22;1.85;;;;;;;4.14;95.85;94971.94;4989614;28;20123;-82
2023/12/15 02:25:36;;;;;;;3.15;1.63;;;;;;;5.07;95.50;95130.72;4974493;28;20046;-83
2023/12/15 02:28:01;;;;;;;3.20;2.22;;;;;;;5.27;96.08;95162.56;4989407;28;20038;-83
2023/12/15 02:30:27;;;;;;;1.42;1.33;;;;;;;5.32;96.19;95169.75;4972563;28;20131;-82
2023/12/15 02:32:52;;;;;;;2.20;1.67;;;;;;;5.04;96.14;95124.09;4973112;28;20135;-84
2023/12/15 02:35:18;;;;;;;2.28;1.48;;;;;;;4.96;96.16;95119.25;4972406;28;20037;-82
2023/12/15 02:37:43;;;;;;;2.80;1.70;;;;;;;4.43;96.17;95063.75;4988302;28;20298;-83
2023/12/15 02:40:09;;;;;;;4.10;2.25;;;;;;;2.88;96.90;94841.25;4988381;28;20031;-82
2023/12/15 02:42:35;;;;;;;3.70;2.40;;;;;;;4.09;97.74;95034.06;4987357;28;20039;-82
2023/12/15 02:45:01;;;;;;;2.78;2.13;;;;;;;4.65;98.39;95125.09;4967108;28;20093;-84
2023/12/15 02:47:28;;;;;;;3.97;2.10;;;;;;;4.96;97.97;95179.69;4964828;28;20027;-82
2023/12/15 02:49:54;;;;;;;3.92;2.15;;;;;;;4.82;98.52;95172.38;4972886;28;20027;-87
2023/12/15 02:52:20;;;;;;;5.30;2.20;;;;;;;4.03;99.18;95037.63;4979221;28;20049;-86
2023/12/15 02:54:46;;;;;;;7.72;4.68;;;;;;;2.23;98.39;94753.34;4977856;28;20035;-85
2023/12/15 02:57:11;;;;;;;12.75;8.40;;;;;;;4.30;98.48;95067.47;5013918;28;20035;-85
2023/12/15 02:59:37;;;;;;;11.50;8.52;;;;;;;3.15;98.41;94917.47;4999790;28;20041;-85
2023/12/15 03:02:03;;;;;;;13.55;9.10;;;;;;;4.93;98.40;95185.44;5063664;28;20030;-86
2023/12/15 03:04:29;;;;;;;23.30;15.55;;;;;;;4.80;98.59;95138.47;5047897;28;20092;-85
2023/12/15 03:06:55;;;;;;;16.27;11.10;;;;;;;4.73;97.57;95140.41;4981630;28;20046;-85
2023/12/15 03:09:21;;;;;;;12.45;8.00;;;;;;;5.14;98.06;95214.69;4983218;28;20031;-85
2023/12/15 03:11:47;;;;;;;10.05;6.75;;;;;;;2.66;98.12;94834.06;5065978;28;20034;-84
2023/12/15 03:14:13;;;;;;;13.10;6.93;;;;;;;4.26;98.30;95084.75;5068466;28;20065;-85
2023/12/15 03:16:38;;;;;;;11.45;6.90;;;;;;;4.91;98.37;95194.59;5066077;28;20035;-85
2023/12/15 03:19:04;;;;;;;12.63;7.40;;;;;;;4.98;99.00;95196.03;4981291;28;20057;-85
2023/12/15 03:21:29;;;;;;;13.02;7.85;;;;;;;5.21;99.06;95218.75;4983341;28;20039;-85
2023/12/15 03:23:55;;;;;;;8.57;6.13;;;;;;;4.34;98.22;95083.56;5048775;28;20022;-84
2023/12/15 03:26:21;;;;;;;10.70;6.63;;;;;;;4.97;98.10;95201.53;4983869;28;20129;-85
2023/12/15 03:28:46;;;;;;;9.80;6.85;;;;;;;5.05;99.05;95222.16;5050611;28;20030;-85
2023/12/15 03:31:12;;;;;;;14.20;7.38;;;;;;;4.46;98.90;95115.81;4985430;28;20027;-85
2023/12/15 03:33:37;;;;;;;12.43;7.25;;;;;;;4.68;98.64;95171.06;5066694;28;20035;-85
2023/12/15 03:36:04;;;;;;;16.73;7.82;;;;;;;4.23;98.62;95107.00;4981784;28;20096;-85
2023/12/15 03:38:30;;;;;;;11.45;7.30;;;;;;;4.65;99.26;95156.59;5050423;28;20047;-85
2023/12/15 03:40:55;;;;;;;12.40;7.38;;;;;;;2.40;98.21;94813.63;5051005;28;20031;-85
2023/12/15 03:43:21;;;;;;;13.75;8.13;;;;;;;3.73;99.38;95022.13;4986018;28;20090;-85
2023/12/15 03:45:47;;;;;;;16.38;9.55;;;;;;;5.03;99.32;95205.84;5069335;28;20023;-85
2023/12/15 03:48:12;;;;;;;17.75;9.43;;;;;;;4.52;98.62;95138.50;5052154;28;20050;-86
2023/12/15 03:50:38;;;;;;;16.75;9.27;;;;;;;4.21;98.23;95076.78;5053367;28;20039;-85
2023/12/15 03:53:03;;;;;;;19.42;10.82;;;;;;;4.38;97.70;95119.63;4986050;28;20037;-86
2023/12/15 03:55:29;;;;;;;16.42;9.20;;;;;;;4.47;97.14;95141.03;5050070;28;20053;-85
2023/12/15 03:57:54;;;;;;;17.58;10.23;;;;;;;4.45;97.43;95143.09;5049951;28;20513;-85
2023/12/15 04:00:20;;;;;;;19.55;10.73;;;;;;;4.65;97.88;95167.88;5049395;28;20039;-85
2023/12/15 04:02:47;;;;;;;23.52;11.73;;;;;;;4.66;97.83;95202.81;4981313;28;20110;-85
2023/12/15 04:05:12;;;;;;;24.58;12.00;;;;;;;4.99;98.30;95244.94;5049197;28;20031;-85
2023/12/15 04:07:38;;;;;;;22.33;12.75;;;;;;;3.97;97.47;95076.06;4984879;28;20042;-85
2023/12/15 04:10:04;;;;;;;19.83;11.38;;;;;;;4.76;97.53;95189.06;4985182;28;20030;-85
2023/12/15 04:12:30;;;;;;;22.08;12.75;;;;;;;4.73;96.85;95184.31;4981926;28;20732;-85
2023/12/15 04:14:55;;;;;;;25.10;13.75;;;;;;;4.09;96.95;95073.41;5053053;28;20054;-85
2023/12/15 04:17:21;;;;;;;22.17;12.60;;;;;;;4.75;97.14;95164.63;5052977;28;20039;-86
2023/12/15 04:19:47;;;;;;;28.92;15.40;;;;;;;4.74;96.29;95173.53;5054756;28;20035;-85
2023/12/15 04:22:12;;;;;;;32.97;18.33;;;;;;;2.71;96.20;94854.28;4985591;28;20045;-85
2023/12/15 04:24:38;;;;;;;32.88;19.70;;;;;;;4.42;96.64;95136.50;4983838;28;20041;-85
2023/12/15 04:27:04;;;;;;;36.42;21.63;;;;;;;4.03;96.73;95111.91;4985590;28;20045;-85
2023/12/15 04:29:29;;;;;;;29.35;17.15;;;;;;;4.13;96.83;95111.28;5050315;28;20042;-85
2023/12/15 04:31:55;;;;;;;34.58;19.13;;;;;;;4.52;97.40;95176.06;5049591;28;20058;-86
2023/12/15 04:34:20;;;;;;;36.78;20.85;;;;;;;4.52;96.86;95176.06;5050213;28;20467;-86
2023/12/15 04:36:45;;;;;;;41.08;21.08;;;;;;;4.66;97.36;95216.75;4983373;28;20038;-85
2023/12/15 04:39:11;;;;;;;35.60;19.23;;;;;;;4.99;97.01;95263.34;4983351;28;20046;-85
2023/12/15 04:41:36;;;;;;;30.45;18.20;;;;;;;4.17;97.54;95143.91;4981117;28;20118;-85
2023/12/15 04:44:02;;;;;;;32.67;19.65;;;;;;;4.98;97.10;95266.19;5045160;28;20070;-85
2023/12/15 04:46:29;;;;;;;28.48;17.90;;;;;;;4.10;97.36;95140.63;5042725;28;20045;-86
2023/12/15 04:48:59;;;;;;;33.28;20.38;;;;;;;5.07;97.19;95277.94;5026646;28;20421;-86
2023/12/15 04:51:25;;;;;;;34.95;20.33;;;;;;;5.06;96.91;95278.97;4960824;28;20046;-86
2023/12/15 04:53:50;;;;;;;35.28;20.73;;;;;;;4.46;97.19;95182.25;4971815;28;20035;-85
2023/12/15 04:56:16;;;;;;;40.50;22.60;;;;;;;3.68;96.75;95054.28;5043915;28;20129;-86
2023/12/15 04:58:43;;;;;;;35.05;20.30;;;;;;;4.63;96.39;95213.81;4978170;28;20493;-85
2023/12/15 05:01:13;;;;;;;31.35;18.70;;;;;;;4.87;96.63;95246.03;5042805;28;20461;-85
2023/12/15 05:03:42;;;;;;;31.90;16.67;;;;;;;4.78;95.92;95229.06;4978195;28;20084;-86
2023/12/15 05:06:17;;;;;;;27.73;16.00;;;;;;;3.01;95.90;94937.91;5043972;28;20035;-86
2023/12/15 05:08:43;;;;;;;25.42;16.42;;;;;;;4.04;95.78;95097.75;5043599;28;20046;-86
2023/12/15 05:11:09;;;;;;;25.58;14.75;;;;;;;5.37;95.54;95306.56;5004581;23;20126;-81
2023/12/15 05:13:35;;;;;;;23.40;13.70;;;;;;;5.31;95.49;95292.56;5060771;28;20043;-81
2023/12/15 05:16:00;;;;;;;23.02;13.60;;;;;;;4.93;95.36;95243.25;5056546;28;20512;-81
2023/12/15 05:18:26;;;;;;;21.92;12.80;;;;;;;5.01;95.56;95256.03;5055578;28;20036;-81
2023/12/15 05:20:51;;;;;;;23.25;13.43;;;;;;;5.24;95.23;95281.41;5055506;28;20033;-81
2023/12/15 05:23:17;;;;;;;23.63;13.07;;;;;;;4.92;93.99;95238.25;5043754;28;20088;-81
2023/12/15 05:25:42;;;;;;;17.15;11.40;;;;;;;5.21;94.42;95300.25;5043360;28;20032;-81
2023/12/15 05:28:08;;;;;;;20.80;12.30;;;;;;;4.84;94.97;95242.03;5063857;28;20031;-80
2023/12/15 05:30:33;;;;;;;21.10;12.13;;;;;;;5.14;94.41;95283.03;5059373;28;20021;-81
2023/12/15 05:32:59;;;;;;;20.77;12.13;;;;;;;4.90;93.66;95263.94;5032274;28;20029;-80
2023/12/15 05:35:24;;;;;;;17.60;11.40;;;;;;;5.38;94.32;95319.50;5047333;28;20052;-81
2023/12/15 05:37:50;;;;;;;21.75;12.88;;;;;;;5.11;93.78;95288.78;5021936;28;20729;-81
2023/12/15 05:40:16;;;;;;;19.48;11.38;;;;;;;4.79;94.11;95256.94;5040098;28;20475;-81
2023/12/15 05:42:42;;;;;;;21.65;12.23;;;;;;;5.27;93.66;95322.97;5022449;28;20348;-81
2023/12/15 05:45:08;;;;;;;23.95;12.30;;;;;;;5.25;94.07;95338.22;5044601;28;20294;-80
2023/12/15 05:47:36;;;;;;;18.55;11.65;;;;;;;3.44;94.29;95048.31;5026698;28;20036;-81
2023/12/15 05:50:02;;;;;;;19.40;11.15;;;;;;;4.90;93.07;95283.16;5017062;28;20037;-81
2023/12/15 05:52:27;;;;;;;18.67;10.75;;;;;;;4.89;92.53;95299.13;5016590;28;20113;-81
2023/12/15 05:54:53;;;;;;;21.20;11.63;;;;;;;5.04;93.03;95346.72;5011374;28;20037;-80
2023/12/15 05:57:18;;;;;;;18.63;10.82;;;;;;;4.78;93.15;95313.94;5033331;28;20037;-81
2023/12/15 05:59:44;;;;;;;18.92;10.23;;;;;;;5.06;92.90;95339.41;5020363;28;20052;-80
2023/12/15 06:02:09;;;;;;;20.50;11.05;;;;;;;4.97;92.25;95325.06;5036403;28;20245;-80
2023/12/15 06:04:38;;;;;;;14.75;9.85;;;;;;;5.25;92.74;95361.06;5021647;28;20047;-80
2023/12/15 06:07:04;;;;;;;16.50;9.98;;;;;;;4.76;92.33;95309.94;5042738;28;20431;-80
2023/12/15 06:09:32;;;;;;;15.52;9.88;;;;;;;5.09;92.20;95362.63;5030897;28;20037;-80
2023/12/15 06:11:58;;;;;;;17.85;10.35;;;;;;;3.62;92.84;95120.78;5029782;28;20072;-80
2023/12/15 06:14:25;;;;;;;17.45;10.80;;;;;;;5.08;92.48;95354.97;5035403;28;20040;-80
2023/12/15 06:16:51;;;;;;;15.65;10.20;;;;;;;4.93;92.85;95350.22;5032226;28;20047;-81
2023/12/15 06:19:17;;;;;;;17.75;11.27;;;;;;;4.12;93.28;95225.19;5054784;28;20068;-81
2023/12/15 06:21:42;;;;;;;21.67;12.93;;;;;;;3.94;93.30;95185.97;5052535;28;20064;-81
2023/12/15 06:24:08;;;;;;;22.40;10.73;;;;;;;5.01;93.42;95360.38;5044550;28;20090;-80
2023/12/15 06:26:36;;;;;;;19.83;11.45;;;;;;;4.93;94.44;95355.47;5037515;28;20527;-80
2023/12/15 06:29:01;;;;;;;20.65;12.20;;;;;;;4.83;94.49;95365.78;5056136;28;20044;-80
2023/12/15 06:31:29;;;;;;;23.98;12.68;;;;;;;4.98;95.33;95379.22;5056968;28;20037;-80
2023/12/15 06:33:55;;;;;;;21.83;12.75;;;;;;;4.79;95.83;95368.09;5065462;28;20041;-81
2023/12/15 06:36:20;;;;;;;26.73;13.57;;;;;;;4.97;96.80;95388.94;5056291;28;20040;-81
2023/12/15 06:38:46;;;;;;;26.45;14.30;;;;;;;4.99;97.67;95375.56;5047940;28;20106;-80
2023/12/15 06:41:12;;;;;;;26.88;14.27;;;;;;;4.69;96.40;95353.94;5042684;28;20037;-81
2023/12/15 06:43:42;;;;;;;27.40;14.60;;;;;;;4.76;96.78;95378.25;5049020;28;20380;-80
2023/12/15 06:46:08;;;;;;;27.45;14.65;;;;;;;4.97;97.56;95396.00;5047930;28;20049;-80
2023/12/15 06:48:34;;;;;;;26.40;14.75;;;;;;;4.75;97.23;95372.19;5060786;28;20095;-80
2023/12/15 06:51:00;;;;;;;23.73;14.68;;;;;;;3.36;96.99;95152.72;5028618;22;20054;-83
2023/12/15 06:53:25;;;;;;;32.60;16.30;;;;;;;3.92;97.87;95251.78;5020073;28;20045;-83
2023/12/15 06:55:51;;;;;;;28.40;15.38;;;;;;;3.95;97.10;95247.91;5050716;27;20032;-83
2023/12/15 06:58:17;;;;;;;29.20;15.95;;;;;;;5.05;97.19;95406.97;5047910;28;20346;-84
2023/12/15 07:00:43;;;;;;;25.92;14.60;;;;;;;3.74;97.17;95217.78;5028120;28;20547;-83
2023/12/15 07:03:13;;;;;;;37.72;17.23;;;;;;;4.40;97.95;95332.88;5012224;28;20472;-82
2023/12/15 07:05:48;;;;;;;31.38;17.67;;;;;;;5.08;98.55;95432.00;5008173;28;20042;-80
2023/12/15 07:08:14;;;;;;;35.92;17.63;;;;;;;4.99;98.11;95434.19;5022621;28;20120;-82
2023/12/15 07:10:39;;;;;;;27.50;16.20;;;;;;;4.50;98.03;95395.31;5019464;28;20600;-83
2023/12/15 07:13:05;;;;;;;30.20;16.58;;;;;;;4.43;98.45;95377.03;4964386;28;20064;-83
2023/12/15 07:15:32;;;;;;;29.17;16.45;;;;;;;4.11;98.86;95355.63;5007533;28;20188;-83
2023/12/15 07:17:57;;;;;;;39.97;17.42;;;;;;;3.94;99.74;95335.53;4993932;28;20049;-83
2023/12/15 07:20:25;;;;;;;36.25;20.38;;;;;;;4.47;99.98;95424.66;4991488;28;20479;-85
2023/12/15 07:22:51;;;;;;;38.85;20.95;;;;;;;4.77;100.00;95446.34;5000384;28;20038;-83
2023/12/15 07:25:16;;;;;;;41.33;20.65;;;;;;;4.59;100.00;95456.97;4996765;28;20036;-82
2023/12/15 07:27:42;;;;;;;40.80;20.77;;;;;;;4.49;100.00;95430.50;5009440;28;20038;-82
2023/12/15 07:30:08;;;;;;;35.50;19.35;;;;;;;4.06;100.00;95386.97;4994939;28;20049;-83
2023/12/15 07:32:33;;;;;;;39.47;20.90;;;;;;;4.35;100.00;95419.38;5002305;28;20052;-82
2023/12/15 07:34:59;;;;;;;45.25;20.95;;;;;;;4.28;100.00;95409.00;5023384;28;20562;-81
2023/12/15 07:37:25;;;;;;;37.83;20.55;;;;;;;4.45;100.00;95440.63;5040353;28;20427;-81
2023/12/15 07:39:50;;;;;;;41.72;20.33;;;;;;;4.20;100.00;95405.91;5032356;28;20040;-83
2023/12/15 07:42:16;;;;;;;39.63;20.05;;;;;;;4.18;100.00;95418.50;4997184;28;20039;-84
2023/12/15 07:44:41;;;;;;;41.63;20.85;;;;;;;4.53;100.00;95458.69;5018263;28;20102;-81
2023/12/15 07:47:06;;;;;;;34.58;19.60;;;;;;;4.61;100.00;95474.09;4998813;28;20388;-83
2023/12/15 07:49:34;;;;;;;38.42;21.55;;;;;;;4.33;100.00;95429.34;5008088;28;20050;-82
2023/12/15 07:52:00;;;;;;;40.45;20.88;;;;;;;4.56;100.00;95463.50;4999540;28;20436;-83
2023/12/15 07:54:27;;;;;;;40.08;20.23;;;;;;;4.78;100.00;95486.56;5015565;27;20048;-81
2023/12/15 07:56:52;;;;;;;39.33;21.83;;;;;;;4.80;100.00;95482.69;4992830;27;20106;-81
2023/12/15 07:59:18;;;;;;;41.05;22.98;;;;;;;3.45;99.73;95283.25;5027623;27;20512;-83
2023/12/15 08:01:49;;;;;;;38.72;20.63;;;;;;;3.47;99.88;95291.69;5014214;27;20145;-83
2023/12/15 08:04:14;;;;;;;;;;;;;;;4.79;100.00;95507.34;5061618;27;20400;-84
2023/12/15 08:06:40;;;;;;;40.20;20.75;;;;;;;3.44;99.99;95314.94;5054518;27;19926;-85
2023/12/15 08:09:05;;;;;;;38.70;20.75;;;;;;;3.45;100.00;95350.63;5002711;27;22042;-84
2023/12/15 08:11:32;;;;;;;48.83;25.58;;;;;;;4.07;100.00;95453.38;5000875;27;20998;-84
2023/12/15 08:13:58;;;;;;;43.38;23.70;;;;;;;4.49;100.00;95523.22;5040581;27;20484;-85
2023/12/15 08:16:23;;;;;;;50.10;26.33;;;;;;;4.14;100.00;95489.00;5021390;28;20049;-85
2023/12/15 08:18:49;;;;;;;42.53;23.20;;;;;;;4.04;100.00;95452.03;5007605;28;20062;-81
2023/12/15 08:21:14;;;;;;;46.63;26.10;;;;;;;4.33;100.00;95492.38;5007163;27;20049;-82
2023/12/15 08:23:40;;;;;;;46.05;26.17;;;;;;;3.78;100.00;95400.75;5004133;28;20083;-82
2023/12/15 08:26:05;;;;;;;48.03;23.70;;;;;;;4.46;100.00;95492.13;4995684;28;20029;-83
2023/12/15 08:28:31;;;;;;;44.35;25.20;;;;;;;3.29;99.89;95306.69;5024040;27;20037;-84
2023/12/15 08:30:57;;;;;;;47.63;25.20;;;;;;;3.86;99.94;95373.38;5043921;27;20037;-82
2023/12/15 08:33:22;;;;;;;52.97;27.02;;;;;;;4.84;100.00;95515.34;5011908;27;20037;-81
2023/12/15 08:35:48;;;;;;;47.97;24.85;;;;;;;4.92;99.10;95541.28;5012738;27;20037;-83
2023/12/15 08:38:13;;;;;;;48.90;25.52;;;;;;;5.05;98.67;95543.66;5018482;27;20036;-82
2023/12/15 08:40:39;;;;;;;45.75;23.95;;;;;;;5.03;98.87;95526.53;5061141;27;20708;-84
2023/12/15 08:43:04;;;;;;;46.83;24.08;;;;;;;4.30;98.29;95429.00;5032916;27;20401;-83
2023/12/15 08:45:30;;;;;;;37.83;21.70;;;;;;;4.70;98.30;95492.94;5048906;27;20138;-82
2023/12/15 08:47:55;;;;;;;41.88;22.45;;;;;;;5.11;98.65;95543.78;5030105;28;20082;-84
2023/12/15 08:50:20;;;;;;;37.33;20.67;;;;;;;5.08;98.29;95542.41;5035589;27;20050;-86
2023/12/15 08:52:46;;;;;;;38.35;20.77;;;;;;;4.32;97.72;95433.00;5029553;28;20029;-82
2023/12/15 08:55:14;;;;;;;40.25;22.25;;;;;;;4.88;97.77;95521.72;5011729;27;20063;-83
2023/12/15 08:57:39;;;;;;;43.58;23.13;;;;;;;4.63;98.11;95498.31;5035852;27;20054;-81
2023/12/15 09:00:05;;;;;;;41.40;22.40;;;;;;;5.02;98.34;95552.03;5051648;27;20023;-81
2023/12/15 09:02:31;;;;;;;40.72;21.63;;;;;;;4.44;98.33;95475.81;5039691;27;20041;-82
2023/12/15 09:04:56;;;;;;;44.00;22.88;;;;;;;5.01;98.79;95537.28;4984432;28;20052;-85
2023/12/15 09:07:41;;;;;;;;;;;;;;;;;;;;;
2023/12/15 09:10:07;;;;;;;39.40;20.17;;;;;;;4.30;98.47;95456.03;5018103;27;20034;-81
2023/12/15 09:12:33;;;;;;;43.17;24.42;;;;;;;3.78;98.46;95369.28;4986646;28;20485;-87
2023/12/15 09:14:58;;;;;;;46.05;22.08;;;;;;;4.51;99.08;95475.69;5023603;27;20118;-88
2023/12/15 09:17:24;;;;;;;44.08;22.45;;;;;;;3.30;98.76;95313.53;5000127;28;20036;-91
2023/12/15 09:19:59;;;;;;;44.72;22.92;;;;;;;3.22;98.45;95301.56;5031534;23;20125;-84
2023/12/15 09:22:25;;;;;;;50.25;23.48;;;;;;;2.51;97.73;95178.50;5039586;28;20049;-84
2023/12/15 09:24:51;;;;;;;46.88;23.13;;;;;;;3.97;98.63;95398.81;5044023;28;20031;-83
2023/12/15 09:27:35;;;;;;;35.92;19.98;;;;;;;3.36;98.30;95302.16;4978178;28;20045;-83
2023/12/15 09:30:00;;;;;;;43.53;22.75;;;;;;;5.02;98.57;95573.06;4977493;28;20060;-83
2023/12/15 09:32:39;;;;;;;;;;;;;;;;;;;;;
2023/12/15 09:35:20;;;;;;;41.53;22.02;;;;;;;2.25;97.74;95137.75;4977302;28;20416;-84
2023/12/15 09:37:49;;;;;;;48.53;23.20;;;;;;;4.64;98.74;95501.75;5042209;28;20034;-84
2023/12/15 09:40:20;;;;;;;43.60;23.33;;;;;;;4.71;99.16;95525.28;4978870;28;20042;-83
2023/12/15 09:42:46;;;;;;;50.47;26.67;;;;;;;2.13;98.79;95097.69;5024142;28;20114;-83
2023/12/15 09:45:12;;;;;;;54.47;27.63;;;;;;;4.47;98.73;95458.81;5036468;28;20445;-84
2023/12/15 09:47:44;;;;;;;52.50;26.60;;;;;;;5.03;98.88;95543.09;4971794;28;20090;-83
2023/12/15 09:50:12;;;;;;;53.67;25.90;;;;;;;2.51;98.70;95197.63;4989858;28;20065;-83
2023/12/15 09:52:39;;;;;;;46.70;23.83;;;;;;;4.04;98.64;95411.88;5019282;28;20070;-83
2023/12/15 09:55:06;;;;;;;53.55;25.02;;;;;;;3.63;99.22;95341.88;4963434;28;20088;-84
2023/12/15 09:57:34;;;;;;;46.53;25.45;;;;;;;4.08;99.50;95402.50;5029300;28;20481;-83
2023/12/15 09:59:59;;;;;;;51.38;25.10;;;;;;;5.09;99.39;95525.63;5036455;28;20929;-83
2023/12/15 10:02:25;;;;;;;48.78;24.77;;;;;;;3.57;99.56;95312.13;5044129;28;20046;-83
2023/12/15 10:04:50;;;;;;;46.70;26.15;;;;;;;5.17;98.83;95548.13;4975891;28;20040;-83
2023/12/15 10:07:16;;;;;;;46.97;24.35;;;;;;;5.06;98.15;95536.56;4976929;28;20034;-83
2023/12/15 10:09:42;;;;;;;47.63;25.92;;;;;;;4.72;98.30;95461.19;5050099;28;20042;-83
2023/12/15 10:12:11;;;;;;;53.25;25.92;;;;;;;5.44;97.78;95565.78;5049518;28;20043;-83
2023/12/15 10:14:39;;;;;;;49.83;23.30;;;;;;;4.90;97.21;95453.97;5043222;28;20045;-83
2023/12/15 10:17:14;;;;;;;48.25;24.10;;;;;;;4.11;97.41;95387.13;4979949;28;20140;-81
2023/12/15 10:19:39;;;;;;;42.70;23.90;;;;;;;5.16;97.96;95541.25;4983971;28;20074;-81
2023/12/15 10:22:06;;;;;;;43.50;21.77;;;;;;;5.22;98.31;95556.91;4960993;28;20088;-81
2023/12/15 10:24:38;;;;;;;45.88;22.88;;;;;;;5.10;98.20;95535.09;4956807;28;20027;-81
2023/12/15 10:27:07;;;;;;;42.05;21.67;;;;;;;4.82;98.49;95475.34;4957804;28;20092;-84
2023/12/15 10:29:33;;;;;;;44.33;22.02;;;;;;;3.98;98.18;95332.19;5052735;22;20358;-80
2023/12/15 10:31:58;;;;;;;47.33;23.63;;;;;;;5.36;97.97;95567.97;5093781;28;20670;-80
2023/12/15 10:34:26;;;;;;;46.35;23.75;;;;;;;4.87;98.93;95493.88;5094968;28;20072;-77
2023/12/15 10:36:55;;;;;;;53.40;25.92;;;;;;;5.30;98.78;95535.53;5081030;28;20156;-78
2023/12/15 10:39:22;;;;;;;54.75;27.08;;;;;;;5.41;97.97;95568.09;5083942;28;20195;-80
2023/12/15 10:41:48;;;;;;;55.38;26.50;;;;;;;5.38;98.27;95543.06;5089410;28;20466;-80
2023/12/15 10:44:14;;;;;;;48.00;24.95;;;;;;;5.38;97.90;95531.72;5093685;28;20553;-79
2023/12/15 10:46:42;;;;;;;58.50;28.00;;;;;;;5.44;97.63;95528.97;5095838;28;20061;-79
2023/12/15 10:49:09;;;;;;;49.30;25.23;;;;;;;5.57;98.07;95545.53;5098002;28;20502;-79
2023/12/15 10:51:38;;;;;;;42.90;21.73;;;;;;;5.78;97.86;95561.50;5095698;28;20143;-80
2023/12/15 10:54:05;;;;;;;42.45;21.70;;;;;;;5.69;97.15;95569.97;5095345;28;20027;-80
2023/12/15 10:56:31;;;;;;;52.97;29.10;;;;;;;5.65;96.81;95588.06;5089101;28;20058;-77
2023/12/15 10:58:58;;;;;;;51.10;27.75;;;;;;;5.31;97.80;95555.53;5080363;28;20031;-78
2023/12/15 11:01:27;;;;;;;51.05;26.35;;;;;;;5.02;98.26;95525.72;5093182;28;20031;-77
2023/12/15 11:03:53;;;;;;;55.63;27.35;;;;;;;5.35;98.67;95556.66;5095966;28;20172;-77
2023/12/15 11:06:32;;;;;;;43.10;21.73;;;;;;;5.53;98.63;95562.81;5091181;28;20036;-80
2023/12/15 11:09:07;;;;;;;47.67;22.08;;;;;;;5.51;97.68;95560.41;5095842;28;20020;-80
2023/12/15 11:11:32;;;;;;;34.55;18.38;;;;;;;5.27;96.75;95528.09;5093134;28;20059;-80
2023/12/15 11:14:04;;;;;;;34.00;19.15;;;;;;;5.79;96.93;95583.34;5091555;28;20071;-80
2023/12/15 11:16:34;;;;;;;36.22;19.13;;;;;;;5.71;96.78;95575.81;5125849;22;20059;-85
2023/12/15 11:19:00;;;;;;;34.78;17.85;;;;;;;5.23;96.16;95513.00;5116041;22;20112;-78
2023/12/15 11:21:27;;;;;;;33.92;17.75;;;;;;;5.49;96.21;95544.06;5082210;28;20059;-79
2023/12/15 11:24:04;;;;;;;41.17;17.75;;;;;;;5.73;96.84;95577.16;5086977;28;20616;-80
2023/12/15 11:26:37;;;;;;;29.00;14.98;;;;;;;5.62;95.60;95545.63;5087403;28;20053;-80
2023/12/15 11:29:15;;;;;;;30.10;15.60;;;;;;;5.75;95.71;95584.84;5105826;27;20091;-80